Time;durP1;ratioP1;P1;durP2;ratioP2;P2;SDS_P1;SDS_P2;PMS_P1;PMS_P2;Temp;Humidity;BMP_temperature;BMP_pressure;BME280_temperature;BME280_humidity;BME280_pressure;Samples;Min_cycle;Max_cycle;Signal;HPM_P1;HPM_P2
2022/08/14 00:01:02;;;;;;;3.97;2.70;;;;;;;;;;4992912;28;20430;-69
2022/08/14 00:03:35;;;;;;;2.88;2.63;;;;;;;;;;4992681;28;20416;-68
2022/08/14 00:06:03;;;;;;;3.88;2.40;;;;;;;;;;4992444;28;20533;-68
2022/08/14 00:08:49;;;;;;;3.67;2.58;;;;;;;;;;4992803;28;20066;-68
2022/08/14 00:11:18;;;;;;;4.53;2.50;;;;;;;;;;4993743;28;20046;-68
2022/08/14 00:13:47;;;;;;;3.63;2.60;;;;;;;;;;4993376;28;20050;-68
2022/08/14 00:16:18;;;;;;;;;;;;;;;;;;4992777;28;20101;-69
2022/08/14 00:19:05;;;;;;;8.13;2.72;;;;;;;;;;4993313;28;19922;-68
2022/08/14 00:21:45;;;;;;;3.35;2.60;;;;;;;;;;5006821;28;20054;-69
2022/08/14 00:24:12;;;;;;;3.38;2.65;;;;;;;;;;4992776;28;20247;-68
2022/08/14 00:26:48;;;;;;;2.88;2.67;;;;;;;;;;4992197;28;20054;-69
2022/08/14 00:29:20;;;;;;;3.28;2.55;;;;;;;;;;4991850;28;20051;-68
2022/08/14 00:31:50;;;;;;;2.53;2.33;;;;;;;;;;4993263;28;20046;-68
2022/08/14 00:34:22;;;;;;;3.13;2.58;;;;;;;;;;5007878;28;20046;-68
2022/08/14 00:37:08;;;;;;;3.30;2.67;;;;;;;;;;4991843;28;20406;-68
2022/08/14 00:39:36;;;;;;;3.00;2.67;;;;;;;;;;5007700;28;20054;-68
2022/08/14 00:42:03;;;;;;;3.28;2.80;;;;;;;;;;4993015;28;20054;-68
2022/08/14 00:44:30;;;;;;;4.35;2.85;;;;;;;;;;4993162;28;20051;-69
2022/08/14 00:47:00;;;;;;;6.40;2.83;;;;;;;;;;4991948;28;20046;-68
2022/08/14 00:49:28;;;;;;;5.80;3.03;;;;;;;;;;4991675;28;20137;-68
2022/08/14 00:51:55;;;;;;;5.03;2.70;;;;;;;;;;4991709;28;20505;-69
2022/08/14 00:54:23;;;;;;;4.05;2.58;;;;;;;;;;5007903;28;20050;-69
2022/08/14 00:56:51;;;;;;;4.32;2.72;;;;;;;;;;4993408;28;20050;-68
2022/08/14 00:59:25;;;;;;;3.15;2.90;;;;;;;;;;4992291;28;20060;-68
2022/08/14 01:01:54;;;;;;;3.75;2.60;;;;;;;;;;5007700;28;20452;-68
2022/08/14 01:04:21;;;;;;;4.65;3.45;;;;;;;;;;4991731;28;20129;-68
2022/08/14 01:07:08;;;;;;;3.50;3.20;;;;;;;;;;4991628;28;20050;-69
2022/08/14 01:09:36;;;;;;;2.90;2.70;;;;;;;;;;5007702;28;20047;-69
2022/08/14 01:12:04;;;;;;;3.40;3.10;;;;;;;;;;4992620;28;20054;-69
2022/08/14 01:14:34;;;;;;;3.55;3.10;;;;;;;;;;4992363;28;20053;-69
2022/08/14 01:17:01;;;;;;;3.33;2.78;;;;;;;;;;4991303;28;20052;-69
2022/08/14 01:22:14;;;;;;;3.92;2.90;;;;;;;;;;4991489;28;20075;-69
2022/08/14 01:24:44;;;;;;;3.17;2.83;;;;;;;;;;4991384;28;20480;-69
2022/08/14 01:27:17;;;;;;;3.33;3.03;;;;;;;;;;4991560;28;20054;-69
2022/08/14 01:29:45;;;;;;;4.13;2.95;;;;;;;;;;4990976;28;20472;-70
2022/08/14 01:32:31;;;;;;;3.50;3.20;;;;;;;;;;4992327;28;20050;-70
2022/08/14 01:35:08;;;;;;;3.40;3.10;;;;;;;;;;5005902;28;20046;-70
2022/08/14 01:37:55;;;;;;;3.67;2.75;;;;;;;;;;4992345;28;20054;-69
2022/08/14 01:40:26;;;;;;;3.00;2.80;;;;;;;;;;4991126;28;20104;-68
2022/08/14 01:43:06;;;;;;;3.92;2.85;;;;;;;;;;4991384;28;20057;-68
2022/08/14 01:45:33;;;;;;;3.17;2.88;;;;;;;;;;4991219;28;20065;-68
2022/08/14 01:48:05;;;;;;;3.50;3.20;;;;;;;;;;5006362;28;20050;-67
2022/08/14 01:50:40;;;;;;;5.18;2.92;;;;;;;;;;4994867;28;20046;-68
2022/08/14 01:53:07;;;;;;;5.05;3.20;;;;;;;;;;4994892;28;20054;-68
2022/08/14 01:55:34;;;;;;;3.13;2.80;;;;;;;;;;4994709;28;20086;-68
2022/08/14 01:58:00;;;;;;;3.05;2.75;;;;;;;;;;5011227;28;20061;-68
2022/08/14 02:00:52;;;;;;;3.47;2.63;;;;;;;;;;4995173;28;20104;-69
2022/08/14 02:03:29;;;;;;;2.90;2.70;;;;;;;;;;4995047;28;20056;-68
2022/08/14 02:06:00;;;;;;;2.70;2.50;;;;;;;;;;4996066;28;20057;-68
2022/08/14 02:08:47;;;;;;;3.80;2.90;;;;;;;;;;4994689;28;20053;-68
2022/08/14 02:11:23;;;;;;;;;;;;;;;;;;4994949;28;20061;-68
2022/08/14 02:14:02;;;;;;;3.85;3.53;;;;;;;;;;4994754;28;19969;-68
2022/08/14 02:16:43;;;;;;;3.50;3.03;;;;;;;;;;4994665;28;20116;-68
2022/08/14 02:19:17;;;;;;;4.25;3.00;;;;;;;;;;4994372;28;20054;-68
2022/08/14 02:21:45;;;;;;;3.78;3.47;;;;;;;;;;4994395;28;20054;-68
2022/08/14 02:24:17;;;;;;;3.20;2.90;;;;;;;;;;4994620;28;20222;-68
2022/08/14 02:27:04;;;;;;;3.47;3.15;;;;;;;;;;4994344;28;20112;-68
2022/08/14 02:29:53;;;;;;;4.50;2.90;;;;;;;;;;4995231;28;20517;-68
2022/08/14 02:32:32;;;;;;;5.72;3.10;;;;;;;;;;4995525;28;20058;-68
2022/08/14 02:35:14;;;;;;;4.50;3.00;;;;;;;;;;5009576;28;20161;-68
2022/08/14 02:37:41;;;;;;;3.22;3.00;;;;;;;;;;4994332;28;20057;-68
2022/08/14 02:40:15;;;;;;;4.15;3.10;;;;;;;;;;4994640;28;20054;-68
2022/08/14 02:42:42;;;;;;;4.65;3.40;;;;;;;;;;5009922;28;20460;-68
2022/08/14 02:45:23;;;;;;;5.18;3.45;;;;;;;;;;4994057;28;20523;-68
2022/08/14 02:47:49;;;;;;;4.00;3.45;;;;;;;;;;4995185;28;20077;-68
2022/08/14 02:50:23;;;;;;;3.58;3.28;;;;;;;;;;4995240;28;20528;-67
2022/08/14 02:52:53;;;;;;;6.20;3.13;;;;;;;;;;4974555;28;20402;-68
2022/08/14 02:55:29;;;;;;;3.10;2.90;;;;;;;;;;4974493;28;20049;-68
2022/08/14 02:57:56;;;;;;;4.50;3.97;;;;;;;;;;4975594;28;20085;-68
2022/08/14 03:00:29;;;;;;;4.57;3.20;;;;;;;;;;5026767;23;20065;-67
2022/08/14 03:02:56;;;;;;;3.40;3.10;;;;;;;;;;4997337;28;20534;-66
2022/08/14 03:05:29;;;;;;;4.07;3.40;;;;;;;;;;5014085;28;20081;-68
2022/08/14 03:08:05;;;;;;;3.15;2.92;;;;;;;;;;5012985;28;20518;-67
2022/08/14 03:10:33;;;;;;;4.38;3.53;;;;;;;;;;5009228;28;20056;-68
2022/08/14 03:13:03;;;;;;;5.50;3.28;;;;;;;;;;4993609;28;20046;-67
2022/08/14 03:15:32;;;;;;;3.90;3.58;;;;;;;;;;4977669;28;20054;-67
2022/08/14 03:17:59;;;;;;;7.03;3.63;;;;;;;;;;5009068;28;20448;-67
2022/08/14 03:20:27;;;;;;;5.90;3.67;;;;;;;;;;5009481;28;20054;-68
2022/08/14 03:22:58;;;;;;;4.43;3.63;;;;;;;;;;4993436;28;20054;-67
2022/08/14 03:25:25;;;;;;;4.70;3.90;;;;;;;;;;4993570;28;20046;-67
2022/08/14 03:27:52;;;;;;;4.28;3.63;;;;;;;;;;4993144;28;20082;-67
2022/08/14 03:30:26;;;;;;;3.80;3.47;;;;;;;;;;4977776;28;20058;-67
2022/08/14 03:33:08;;;;;;;6.75;3.50;;;;;;;;;;4993602;28;20054;-67
2022/08/14 03:35:36;;;;;;;4.05;3.75;;;;;;;;;;4993362;28;20050;-67
2022/08/14 03:38:24;;;;;;;4.15;3.38;;;;;;;;;;4993352;28;20054;-67
2022/08/14 03:41:15;;;;;;;3.53;3.22;;;;;;;;;;4993168;28;20083;-67
2022/08/14 03:43:51;;;;;;;4.50;4.10;;;;;;;;;;4994361;28;20057;-67
2022/08/14 03:46:35;;;;;;;4.15;3.85;;;;;;;;;;4994304;28;20054;-67
2022/08/14 03:49:23;;;;;;;4.47;3.47;;;;;;;;;;4992942;28;20057;-67
2022/08/14 03:51:55;;;;;;;3.95;3.65;;;;;;;;;;4977551;28;20093;-67
2022/08/14 03:54:24;;;;;;;6.82;3.75;;;;;;;;;;4977107;28;20046;-69
2022/08/14 03:56:53;;;;;;;4.20;3.80;;;;;;;;;;4993117;28;20054;-67
2022/08/14 03:59:20;;;;;;;4.50;4.10;;;;;;;;;;4992556;28;20057;-66
2022/08/14 04:01:48;;;;;;;4.18;3.50;;;;;;;;;;4992524;28;20054;-67
2022/08/14 04:04:27;;;;;;;4.30;3.90;;;;;;;;;;4993827;28;20473;-67
2022/08/14 04:06:53;;;;;;;3.80;3.50;;;;;;;;;;4992500;28;20142;-67
2022/08/14 04:09:24;;;;;;;4.22;3.83;;;;;;;;;;5008044;28;20393;-67
2022/08/14 04:11:53;;;;;;;4.38;3.83;;;;;;;;;;4992719;28;20138;-68
2022/08/14 04:14:21;;;;;;;4.50;4.10;;;;;;;;;;4992140;28;20100;-67
2022/08/14 04:16:49;;;;;;;4.72;4.28;;;;;;;;;;4993665;28;20457;-67
2022/08/14 04:19:18;;;;;;;5.38;4.05;;;;;;;;;;4992232;28;20489;-67
2022/08/14 04:21:45;;;;;;;7.63;4.50;;;;;;;;;;4992476;28;20057;-68
2022/08/14 04:24:31;;;;;;;4.57;4.15;;;;;;;;;;5006271;28;20070;-67
2022/08/14 04:27:08;;;;;;;4.72;4.32;;;;;;;;;;4992381;28;20050;-66
2022/08/14 04:29:40;;;;;;;4.53;4.13;;;;;;;;;;4972929;28;20086;-67
2022/08/14 04:32:11;;;;;;;4.38;3.97;;;;;;;;;;5006468;28;20527;-66
2022/08/14 04:35:01;;;;;;;6.57;4.30;;;;;;;;;;5003953;28;20054;-66
2022/08/14 04:46:11;;;;;;;3.92;3.63;;;;;;;;;;5004369;28;20478;-66
2022/08/14 04:48:58;;;;;;;;;;;;;;;;;;5005842;28;20062;-66
2022/08/14 04:51:26;;;;;;;5.68;3.67;;;;;;;;;;4993045;28;20110;-66
2022/08/14 04:53:55;;;;;;;3.97;3.67;;;;;;;;;;4992850;28;20128;-66
2022/08/14 04:56:23;;;;;;;4.57;4.18;;;;;;;;;;4992977;28;20042;-66
2022/08/14 04:59:04;;;;;;;4.30;3.90;;;;;;;;;;4991392;28;20085;-68
2022/08/14 05:01:42;;;;;;;4.10;3.80;;;;;;;;;;4991709;28;20081;-65
2022/08/14 05:04:17;;;;;;;3.67;3.38;;;;;;;;;;4992622;28;20050;-66
2022/08/14 05:06:46;;;;;;;6.63;3.85;;;;;;;;;;5008203;28;20050;-67
2022/08/14 05:09:15;;;;;;;3.80;3.47;;;;;;;;;;5007142;28;20072;-67
2022/08/14 05:11:43;;;;;;;5.90;3.28;;;;;;;;;;5007514;28;20053;-67
2022/08/14 05:14:10;;;;;;;4.60;3.78;;;;;;;;;;4991471;28;20084;-67
2022/08/14 05:16:57;;;;;;;4.30;3.90;;;;;;;;;;4991569;28;20054;-67
2022/08/14 05:19:28;;;;;;;5.30;3.83;;;;;;;;;;4992706;28;20046;-66
2022/08/14 05:21:58;;;;;;;5.00;3.90;;;;;;;;;;5007505;28;20137;-66
2022/08/14 05:24:48;;;;;;;3.40;3.20;;;;;;;;;;4992291;28;20416;-67
2022/08/14 05:27:19;;;;;;;4.22;3.72;;;;;;;;;;4992497;28;20054;-66
2022/08/14 05:29:51;;;;;;;4.93;3.95;;;;;;;;;;4991257;28;20142;-66
2022/08/14 05:32:18;;;;;;;4.22;3.83;;;;;;;;;;4991256;28;20290;-66
2022/08/14 05:34:45;;;;;;;6.40;3.53;;;;;;;;;;4992115;28;20058;-67
2022/08/14 05:37:13;;;;;;;4.03;3.58;;;;;;;;;;4992042;28;20489;-66
2022/08/14 05:39:41;;;;;;;3.83;3.53;;;;;;;;;;5006839;28;20054;-67
2022/08/14 05:42:08;;;;;;;5.10;3.95;;;;;;;;;;4991239;28;20050;-66
2022/08/14 05:44:47;;;;;;;3.88;3.58;;;;;;;;;;4991299;28;20050;-66
2022/08/14 05:47:14;;;;;;;4.32;3.90;;;;;;;;;;4992347;28;20050;-65
2022/08/14 05:49:42;;;;;;;5.32;3.80;;;;;;;;;;4990702;28;20086;-66
2022/08/14 05:52:09;;;;;;;5.28;4.05;;;;;;;;;;4992171;28;20089;-66
2022/08/14 05:54:43;;;;;;;4.18;3.75;;;;;;;;;;4991281;28;20073;-67
2022/08/14 05:57:10;;;;;;;4.38;3.53;;;;;;;;;;4992566;28;20053;-67
2022/08/14 05:59:36;;;;;;;3.97;3.67;;;;;;;;;;4991988;28;20082;-66
2022/08/14 06:02:06;;;;;;;3.97;3.67;;;;;;;;;;4992203;28;20054;-68
2022/08/14 06:04:36;;;;;;;5.10;4.07;;;;;;;;;;4990842;28;20470;-67
2022/08/14 06:07:03;;;;;;;3.60;3.30;;;;;;;;;;4992377;28;20145;-65
2022/08/14 06:09:30;;;;;;;4.05;3.65;;;;;;;;;;4991657;28;20050;-66
2022/08/14 06:12:09;;;;;;;4.68;3.45;;;;;;;;;;5006003;28;20058;-66
2022/08/14 06:14:37;;;;;;;3.95;3.60;;;;;;;;;;4990993;28;20112;-66
2022/08/14 06:17:04;;;;;;;3.97;3.60;;;;;;;;;;4992052;28;20107;-66
2022/08/14 06:19:31;;;;;;;4.05;3.63;;;;;;;;;;5006993;28;20054;-65
2022/08/14 06:21:57;;;;;;;3.65;3.35;;;;;;;;;;5000919;28;20061;-68
2022/08/14 06:24:26;;;;;;;4.07;3.25;;;;;;;;;;5010776;28;20050;-66
2022/08/14 06:26:56;;;;;;;3.30;3.00;;;;;;;;;;5018102;28;20056;-68
2022/08/14 06:29:32;;;;;;;4.70;4.38;;;;;;;;;;5005252;28;20494;-65
2022/08/14 06:32:01;;;;;;;3.60;3.30;;;;;;;;;;5006870;28;20054;-66
2022/08/14 06:34:47;;;;;;;4.35;3.55;;;;;;;;;;4992450;28;20055;-66
2022/08/14 06:37:53;;;;;;;3.90;3.60;;;;;;;;;;4995710;28;20100;-67
2022/08/14 06:40:25;;;;;;;4.93;3.78;;;;;;;;;;4995455;28;20054;-66
2022/08/14 06:42:56;;;;;;;5.47;3.40;;;;;;;;;;4995474;28;20161;-65
2022/08/14 06:45:32;;;;;;;5.03;4.10;;;;;;;;;;5009509;28;20052;-66
2022/08/14 06:48:00;;;;;;;3.83;3.47;;;;;;;;;;4993691;28;20061;-65
2022/08/14 06:50:27;;;;;;;3.60;3.25;;;;;;;;;;4994987;28;20543;-67
2022/08/14 06:52:59;;;;;;;6.03;3.47;;;;;;;;;;5010114;28;20054;-66
2022/08/14 06:55:26;;;;;;;4.53;3.08;;;;;;;;;;4994163;28;20038;-66
2022/08/14 06:57:55;;;;;;;3.40;2.97;;;;;;;;;;4995056;28;20050;-68
2022/08/14 07:00:25;;;;;;;3.30;3.00;;;;;;;;;;4993882;28;20420;-66
2022/08/14 07:05:48;;;;;;;3.65;2.90;;;;;;;;;;4995201;28;20077;-66
2022/08/14 07:08:29;;;;;;;4.40;2.65;;;;;;;;;;5007860;28;20125;-66
2022/08/14 07:10:59;;;;;;;5.78;2.83;;;;;;;;;;4995141;28;20125;-66
2022/08/14 07:13:27;;;;;;;3.60;2.80;;;;;;;;;;4993924;28;20097;-67
2022/08/14 07:15:57;;;;;;;2.80;2.60;;;;;;;;;;4985618;28;20050;-66
2022/08/14 07:18:30;;;;;;;3.53;3.22;;;;;;;;;;4993291;28;20054;-66
2022/08/14 07:20:58;;;;;;;2.95;2.67;;;;;;;;;;5008698;28;20058;-66
2022/08/14 07:23:26;;;;;;;5.00;2.72;;;;;;;;;;4994413;28;20062;-66
2022/08/14 07:25:56;;;;;;;3.78;3.38;;;;;;;;;;5008662;28;20859;-66
2022/08/14 07:28:30;;;;;;;3.40;2.88;;;;;;;;;;4993280;28;20058;-66
2022/08/14 07:31:00;;;;;;;3.30;3.00;;;;;;;;;;4993505;28;20051;-66
2022/08/14 07:33:44;;;;;;;3.83;2.80;;;;;;;;;;5008937;28;20051;-65
2022/08/14 07:36:17;;;;;;;3.00;2.70;;;;;;;;;;4993266;28;20544;-66
2022/08/14 07:38:56;;;;;;;4.82;2.53;;;;;;;;;;4992768;28;20461;-66
2022/08/14 07:41:23;;;;;;;2.92;2.70;;;;;;;;;;5009599;28;20050;-66
2022/08/14 07:43:49;;;;;;;3.55;2.58;;;;;;;;;;4994165;28;20065;-66
2022/08/14 07:46:22;;;;;;;2.97;2.50;;;;;;;;;;4993928;28;20046;-66
2022/08/14 07:48:55;;;;;;;3.65;2.30;;;;;;;;;;5000064;28;20061;-66
2022/08/14 07:51:22;;;;;;;3.15;2.70;;;;;;;;;;5012240;28;20050;-66
2022/08/14 07:53:49;;;;;;;2.38;2.17;;;;;;;;;;5012047;28;20556;-66
2022/08/14 07:56:23;;;;;;;2.90;2.53;;;;;;;;;;4997920;28;20129;-66
2022/08/14 07:59:10;;;;;;;8.32;5.03;;;;;;;;;;4992553;28;20069;-66
2022/08/14 08:01:39;;;;;;;3.97;3.15;;;;;;;;;;4993915;28;20050;-66
2022/08/14 08:04:21;;;;;;;3.92;2.20;;;;;;;;;;5008076;28;20421;-66
2022/08/14 08:06:51;;;;;;;2.30;2.10;;;;;;;;;;5008263;28;20125;-67
2022/08/14 08:09:23;;;;;;;3.67;2.47;;;;;;;;;;4991898;28;20117;-67
2022/08/14 08:11:57;;;;;;;2.97;2.30;;;;;;;;;;5007180;28;20108;-67
2022/08/14 08:14:24;;;;;;;2.85;2.50;;;;;;;;;;4992553;28;20054;-67
2022/08/14 08:16:54;;;;;;;3.90;1.92;;;;;;;;;;4992374;28;20064;-67
2022/08/14 08:19:20;;;;;;;3.28;2.00;;;;;;;;;;5008640;28;20524;-67
2022/08/14 08:21:47;;;;;;;2.60;2.05;;;;;;;;;;4993804;28;20428;-67
2022/08/14 08:24:15;;;;;;;3.08;2.10;;;;;;;;;;4992542;28;20053;-67
2022/08/14 08:26:46;;;;;;;3.28;1.83;;;;;;;;;;4993230;28;20109;-67
2022/08/14 08:29:21;;;;;;;2.17;1.98;;;;;;;;;;4992138;28;20050;-68
2022/08/14 08:31:53;;;;;;;4.25;1.95;;;;;;;;;;4977325;28;20215;-66
2022/08/14 08:34:20;;;;;;;3.63;2.03;;;;;;;;;;5008684;28;20134;-67
2022/08/14 08:36:50;;;;;;;4.90;2.13;;;;;;;;;;4992027;28;20050;-66
2022/08/14 08:39:18;;;;;;;3.70;1.73;;;;;;;;;;5007808;28;20429;-66
2022/08/14 08:41:48;;;;;;;4.88;2.10;;;;;;;;;;5008173;28;20056;-67
2022/08/14 08:44:20;;;;;;;4.75;2.15;;;;;;;;;;5008014;28;20133;-69
2022/08/14 08:47:06;;;;;;;2.30;2.00;;;;;;;;;;4992366;28;20070;-68
2022/08/14 08:49:41;;;;;;;5.28;2.13;;;;;;;;;;5007521;28;20059;-71
2022/08/14 08:52:25;;;;;;;2.42;2.22;;;;;;;;;;4988564;28;20417;-69
2022/08/14 08:54:57;;;;;;;;;;;;;;;;;;4994517;28;20047;-73
2022/08/14 08:57:26;;;;;;;2.00;1.63;;;;;;;;;;5007011;28;19983;-72
2022/08/14 08:59:53;;;;;;;3.53;2.00;;;;;;;;;;4992163;28;20057;-72
2022/08/14 09:02:24;;;;;;;2.92;1.95;;;;;;;;;;5036551;23;20099;-74
2022/08/14 09:05:00;;;;;;;2.83;2.10;;;;;;;;;;5032071;28;20097;-73
2022/08/14 09:07:27;;;;;;;3.22;2.15;;;;;;;;;;5032555;28;20053;-70
2022/08/14 09:09:56;;;;;;;3.85;1.88;;;;;;;;;;5031990;28;20077;-70
2022/08/14 09:12:29;;;;;;;1.80;1.70;;;;;;;;;;5032218;28;20136;-70
2022/08/14 09:15:02;;;;;;;3.42;2.15;;;;;;;;;;5030589;28;20061;-71
2022/08/14 09:17:37;;;;;;;1.80;1.70;;;;;;;;;;5031132;28;20076;-71
2022/08/14 09:20:06;;;;;;;1.83;1.73;;;;;;;;;;5047095;28;20400;-71
2022/08/14 09:22:40;;;;;;;2.22;2.03;;;;;;;;;;5016315;28;20580;-71
2022/08/14 09:25:13;;;;;;;2.30;2.00;;;;;;;;;;5011343;28;20050;-71
2022/08/14 09:27:40;;;;;;;2.60;2.40;;;;;;;;;;4994996;28;20092;-71
2022/08/14 09:30:08;;;;;;;2.25;2.05;;;;;;;;;;5012248;28;20054;-71
2022/08/14 09:33:01;;;;;;;2.22;2.03;;;;;;;;;;5009339;28;20883;-72
2022/08/14 09:35:56;;;;;;;2.90;2.30;;;;;;;;;;5029094;28;20049;-71
2022/08/14 09:38:47;;;;;;;2.53;2.33;;;;;;;;;;5030422;28;20054;-71
2022/08/14 09:41:48;;;;;;;4.60;2.35;;;;;;;;;;5031864;28;20057;-72
2022/08/14 09:45:01;;;;;;;2.67;2.25;;;;;;;;;;5011459;28;20092;-70
2022/08/14 09:47:50;;;;;;;2.47;2.17;;;;;;;;;;5010938;28;20058;-71
2022/08/14 09:50:28;;;;;;;3.15;2.30;;;;;;;;;;5011168;28;20058;-73
2022/08/14 09:53:03;;;;;;;2.85;2.28;;;;;;;;;;5018779;28;20059;-73
2022/08/14 09:55:34;;;;;;;2.10;1.90;;;;;;;;;;5031585;28;20512;-71
2022/08/14 09:58:10;;;;;;;2.00;1.80;;;;;;;;;;5031485;28;20520;-72
2022/08/14 10:00:53;;;;;;;2.90;2.10;;;;;;;;;;5031651;28;20500;-71
2022/08/14 10:03:26;;;;;;;5.88;2.97;;;;;;;;;;5030434;28;20055;-71
2022/08/14 10:06:03;;;;;;;3.20;2.90;;;;;;;;;;5030701;28;20049;-71
2022/08/14 10:08:40;;;;;;;2.42;2.20;;;;;;;;;;5031579;28;20057;-72
2022/08/14 10:11:34;;;;;;;2.30;2.10;;;;;;;;;;5034411;28;20055;-72
2022/08/14 10:14:18;;;;;;;2.08;1.95;;;;;;;;;;5018945;28;20321;-71
2022/08/14 10:17:03;;;;;;;4.70;2.30;;;;;;;;;;5015736;28;20064;-72
2022/08/14 10:19:31;;;;;;;3.05;2.03;;;;;;;;;;5016036;28;20050;-70
2022/08/14 10:22:09;;;;;;;3.65;2.22;;;;;;;;;;5015864;28;20603;-71
2022/08/14 10:24:56;;;;;;;2.22;2.03;;;;;;;;;;5016108;28;20141;-71
2022/08/14 10:27:25;;;;;;;3.45;2.30;;;;;;;;;;5030998;28;20069;-72
2022/08/14 10:29:56;;;;;;;3.20;2.47;;;;;;;;;;5035286;28;20058;-71
2022/08/14 10:32:25;;;;;;;2.72;2.53;;;;;;;;;;5015492;28;20501;-71
2022/08/14 10:35:08;;;;;;;2.72;2.17;;;;;;;;;;5014478;28;20538;-71
2022/08/14 10:37:48;;;;;;;2.60;2.40;;;;;;;;;;5015219;28;20125;-71
2022/08/14 10:40:26;;;;;;;3.35;2.72;;;;;;;;;;5015378;28;20057;-68
2022/08/14 10:43:21;;;;;;;3.75;2.15;;;;;;;;;;5022073;28;20049;-73
2022/08/14 10:45:57;;;;;;;5.13;2.42;;;;;;;;;;5034497;28;20099;-72
2022/08/14 10:49:01;;;;;;;2.78;2.10;;;;;;;;;;5050399;28;20060;-73
2022/08/14 10:51:33;;;;;;;3.60;2.10;;;;;;;;;;5033555;28;20496;-72
2022/08/14 10:54:07;;;;;;;4.05;2.25;;;;;;;;;;5033762;28;20049;-72
2022/08/14 10:56:54;;;;;;;2.38;2.15;;;;;;;;;;5033961;28;20045;-73
2022/08/14 10:59:21;;;;;;;3.03;2.30;;;;;;;;;;5034129;28;20053;-72
2022/08/14 11:01:58;;;;;;;2.63;2.10;;;;;;;;;;5034552;28;20080;-72
2022/08/14 11:04:27;;;;;;;2.67;1.95;;;;;;;;;;5015535;28;20049;-72
2022/08/14 11:06:56;;;;;;;2.92;2.08;;;;;;;;;;5017713;28;20087;-72
2022/08/14 11:09:23;;;;;;;2.30;2.10;;;;;;;;;;5033101;28;20060;-74
2022/08/14 11:11:56;;;;;;;3.13;2.03;;;;;;;;;;5034634;28;20132;-73
2022/08/14 11:14:59;;;;;;;2.55;2.35;;;;;;;;;;5034039;28;20057;-74
2022/08/14 11:17:29;;;;;;;2.95;2.20;;;;;;;;;;5034692;28;20454;-72
2022/08/14 11:19:59;;;;;;;2.67;2.42;;;;;;;;;;5033945;28;20508;-72
2022/08/14 11:22:28;;;;;;;2.53;2.33;;;;;;;;;;5032923;28;20049;-73
2022/08/14 11:25:15;;;;;;;3.13;2.42;;;;;;;;;;5000281;28;20096;-73
2022/08/14 11:27:43;;;;;;;2.80;2.60;;;;;;;;;;5014302;28;20046;-74
2022/08/14 11:30:15;;;;;;;4.50;2.60;;;;;;;;;;5013265;28;20049;-73
2022/08/14 11:33:02;;;;;;;3.10;2.40;;;;;;;;;;5028154;28;20056;-73
2022/08/14 11:35:36;;;;;;;2.97;2.70;;;;;;;;;;5043833;28;20053;-73
2022/08/14 11:38:13;;;;;;;3.20;2.47;;;;;;;;;;5042369;28;20075;-72
2022/08/14 11:40:44;;;;;;;2.10;2.00;;;;;;;;;;5051395;28;20095;-72
2022/08/14 11:43:13;;;;;;;2.20;2.10;;;;;;;;;;5046880;28;20045;-71
2022/08/14 11:45:40;;;;;;;2.35;2.15;;;;;;;;;;5033804;28;20132;-71
2022/08/14 11:48:17;;;;;;;3.78;2.65;;;;;;;;;;5015895;28;20049;-69
2022/08/14 11:51:12;;;;;;;5.07;2.38;;;;;;;;;;5033649;28;20099;-70
2022/08/14 11:53:39;;;;;;;2.78;2.55;;;;;;;;;;5032140;28;20049;-68
2022/08/14 11:56:07;;;;;;;3.97;2.35;;;;;;;;;;5033511;28;20056;-69
2022/08/14 11:58:37;;;;;;;2.85;2.55;;;;;;;;;;5033163;28;20045;-69
2022/08/14 12:01:08;;;;;;;2.78;2.58;;;;;;;;;;5033398;28;20483;-70
2022/08/14 12:03:40;;;;;;;2.60;2.40;;;;;;;;;;5038556;28;20496;-69
2022/08/14 12:06:18;;;;;;;2.85;2.33;;;;;;;;;;5053183;28;20076;-69
2022/08/14 12:09:04;;;;;;;1.98;1.80;;;;;;;;;;5043861;28;20053;-69
2022/08/14 12:11:41;;;;;;;2.42;2.25;;;;;;;;;;5013245;28;20456;-69
2022/08/14 12:14:13;;;;;;;;;;;;;;;;;;5013936;28;20055;-68
2022/08/14 12:17:07;;;;;;;2.42;2.22;;;;;;;;;;5013204;28;19960;-71
2022/08/14 12:19:43;;;;;;;;;;;;;;;;;;5012226;28;20049;-71
2022/08/14 12:22:10;;;;;;;3.88;2.10;;;;;;;;;;5047348;28;19924;-72
2022/08/14 12:24:45;;;;;;;2.72;2.53;;;;;;;;;;5052116;28;20052;-72
2022/08/14 12:27:12;;;;;;;4.35;3.90;;;;;;;;;;5052502;28;20053;-71
2022/08/14 12:29:52;;;;;;;2.27;2.07;;;;;;;;;;5049959;28;20055;-71
2022/08/14 12:32:18;;;;;;;3.33;2.30;;;;;;;;;;5012284;28;20386;-71
2022/08/14 12:34:51;;;;;;;2.00;1.90;;;;;;;;;;5011711;28;20065;-72
2022/08/14 12:37:27;;;;;;;4.03;1.95;;;;;;;;;;5012198;28;20049;-71
2022/08/14 12:39:54;;;;;;;2.30;2.10;;;;;;;;;;5010030;28;20528;-70
2022/08/14 12:42:32;;;;;;;2.10;1.90;;;;;;;;;;5017129;28;20107;-71
2022/08/14 12:45:11;;;;;;;2.72;2.03;;;;;;;;;;5011392;28;20053;-70
2022/08/14 12:47:42;;;;;;;2.58;1.92;;;;;;;;;;4994770;28;20053;-70
2022/08/14 12:50:17;;;;;;;2.15;1.95;;;;;;;;;;5014776;28;20524;-70
2022/08/14 12:52:46;;;;;;;2.92;1.88;;;;;;;;;;5030470;28;20053;-71
2022/08/14 12:55:34;;;;;;;2.90;1.70;;;;;;;;;;5029401;28;20053;-73
2022/08/14 12:58:21;;;;;;;2.33;1.65;;;;;;;;;;5029795;28;20658;-71
2022/08/14 13:01:02;;;;;;;1.63;1.52;;;;;;;;;;5019356;28;20046;-71
2022/08/14 13:03:42;;;;;;;2.15;1.90;;;;;;;;;;4994831;28;20538;-70
2022/08/14 13:06:10;;;;;;;2.30;1.58;;;;;;;;;;5010215;28;20508;-71
2022/08/14 13:08:41;;;;;;;2.08;1.98;;;;;;;;;;5010656;28;20100;-70
2022/08/14 13:11:19;;;;;;;2.42;1.90;;;;;;;;;;5022322;28;20045;-70
2022/08/14 13:13:49;;;;;;;1.85;1.75;;;;;;;;;;5030043;28;20051;-71
2022/08/14 13:16:18;;;;;;;3.45;1.50;;;;;;;;;;5030278;28;20051;-71
2022/08/14 13:19:00;;;;;;;1.73;1.60;;;;;;;;;;5022890;28;20149;-70
2022/08/14 13:21:28;;;;;;;1.92;1.75;;;;;;;;;;5009152;28;20053;-70
2022/08/14 13:24:15;;;;;;;2.13;1.70;;;;;;;;;;5008946;28;20471;-70
2022/08/14 13:26:44;;;;;;;2.20;1.58;;;;;;;;;;4999915;28;20045;-71
2022/08/14 13:29:15;;;;;;;2.35;1.63;;;;;;;;;;5007759;28;20085;-69
2022/08/14 13:31:48;;;;;;;1.60;1.50;;;;;;;;;;5000816;28;20061;-69
2022/08/14 13:34:15;;;;;;;1.83;1.70;;;;;;;;;;5021367;28;20041;-70
2022/08/14 13:36:42;;;;;;;2.08;1.88;;;;;;;;;;5018118;28;20046;-69
2022/08/14 13:39:21;;;;;;;2.80;1.83;;;;;;;;;;5005240;28;20045;-70
2022/08/14 13:41:48;;;;;;;2.08;1.88;;;;;;;;;;5020201;28;20780;-70
2022/08/14 13:44:23;;;;;;;1.70;1.60;;;;;;;;;;5020655;28;20045;-70
2022/08/14 13:46:51;;;;;;;1.50;1.40;;;;;;;;;;5008287;28;20052;-70
2022/08/14 13:49:18;;;;;;;2.17;1.98;;;;;;;;;;5025529;28;20049;-70
2022/08/14 13:51:50;;;;;;;1.92;1.70;;;;;;;;;;5024897;28;20183;-70
2022/08/14 13:54:19;;;;;;;2.97;2.75;;;;;;;;;;5020443;28;20087;-67
2022/08/14 13:56:48;;;;;;;2.45;1.73;;;;;;;;;;5021121;28;20060;-70
2022/08/14 13:59:15;;;;;;;3.60;2.50;;;;;;;;;;5023821;28;20389;-70
2022/08/14 14:02:05;;;;;;;1.70;1.60;;;;;;;;;;5020547;28;20060;-67
2022/08/14 14:04:38;;;;;;;2.28;1.60;;;;;;;;;;5023912;28;20072;-70
2022/08/14 14:07:06;;;;;;;1.60;1.30;;;;;;;;;;5026852;28;20496;-72
2022/08/14 14:09:35;;;;;;;1.92;1.83;;;;;;;;;;5020535;28;20576;-67
2022/08/14 14:12:17;;;;;;;2.50;1.67;;;;;;;;;;5013989;28;20046;-66
2022/08/14 14:15:10;;;;;;;1.73;1.63;;;;;;;;;;5025887;28;20151;-67
2022/08/14 14:17:37;;;;;;;1.40;1.30;;;;;;;;;;5027074;28;20140;-69
2022/08/14 14:20:10;;;;;;;2.65;1.92;;;;;;;;;;5027188;28;20061;-68
2022/08/14 14:22:57;;;;;;;1.63;1.50;;;;;;;;;;5028257;28;20539;-68
2022/08/14 14:25:28;;;;;;;2.53;2.17;;;;;;;;;;5029608;28;20145;-67
2022/08/14 14:28:15;;;;;;;3.70;1.27;;;;;;;;;;5023701;28;20041;-67
2022/08/14 14:30:51;;;;;;;1.60;1.50;;;;;;;;;;5025277;28;20145;-67
2022/08/14 14:33:22;;;;;;;1.42;1.30;;;;;;;;;;5023707;28;20719;-68
2022/08/14 14:36:12;;;;;;;1.58;1.20;;;;;;;;;;5009940;28;20052;-67
2022/08/14 14:38:41;;;;;;;1.30;1.17;;;;;;;;;;5021771;28;20053;-67
2022/08/14 14:41:08;;;;;;;1.98;1.20;;;;;;;;;;5025850;28;20057;-68
2022/08/14 14:43:37;;;;;;;1.40;1.30;;;;;;;;;;5021684;28;20061;-68
2022/08/14 14:46:05;;;;;;;1.70;1.30;;;;;;;;;;5007812;28;20054;-68
2022/08/14 14:48:43;;;;;;;2.50;1.75;;;;;;;;;;5004687;28;20124;-67
2022/08/14 14:51:20;;;;;;;1.30;1.20;;;;;;;;;;5027134;28;20061;-67
2022/08/14 14:53:47;;;;;;;1.45;1.35;;;;;;;;;;5026229;28;20049;-67
2022/08/14 14:56:14;;;;;;;1.38;1.15;;;;;;;;;;5025904;28;20045;-67
2022/08/14 14:59:01;;;;;;;1.50;1.40;;;;;;;;;;5024438;28;20554;-67
2022/08/14 15:01:30;;;;;;;2.38;1.25;;;;;;;;;;5027831;28;20052;-67
2022/08/14 15:03:58;;;;;;;2.60;1.27;;;;;;;;;;5020823;28;20057;-66
2022/08/14 15:06:30;;;;;;;1.15;1.15;;;;;;;;;;5027828;28;20045;-67
2022/08/14 15:08:59;;;;;;;1.00;1.00;;;;;;;;;;5023184;28;20045;-67
2022/08/14 15:11:27;;;;;;;1.52;1.20;;;;;;;;;;5026403;28;20056;-67
2022/08/14 15:13:57;;;;;;;2.13;1.20;;;;;;;;;;5026807;28;20054;-67
2022/08/14 15:16:26;;;;;;;1.15;1.10;;;;;;;;;;5024860;28;20089;-66
2022/08/14 15:18:53;;;;;;;1.77;1.48;;;;;;;;;;5023076;28;20046;-66
2022/08/14 15:21:20;;;;;;;1.40;1.30;;;;;;;;;;5021130;28;20064;-67
2022/08/14 15:23:49;;;;;;;2.08;1.20;;;;;;;;;;5023051;28;20050;-66
2022/08/14 15:26:17;;;;;;;1.40;1.30;;;;;;;;;;5024799;28;20508;-66
2022/08/14 15:28:51;;;;;;;3.40;1.52;;;;;;;;;;5010114;28;20052;-67
2022/08/14 15:31:31;;;;;;;1.42;1.33;;;;;;;;;;5026430;28;20071;-67
2022/08/14 15:34:13;;;;;;;1.27;1.17;;;;;;;;;;5025163;28;20148;-66
2022/08/14 15:37:04;;;;;;;2.90;1.70;;;;;;;;;;5025318;28;20048;-68
2022/08/14 15:39:34;;;;;;;1.58;1.40;;;;;;;;;;5020638;28;20072;-67